createdAt,value
2023-05-11T00:01:34.737Z,21.17
2023-05-11T00:04:01.884Z,19.33
2023-05-11T00:06:29.333Z,19.08
2023-05-11T00:08:56.371Z,20.27
2023-05-11T00:11:23.864Z,20.35
2023-05-11T00:13:51.019Z,18.42
2023-05-11T00:16:18.107Z,18.65
2023-05-11T00:18:46.325Z,18.58
2023-05-11T00:21:13.424Z,22.20
2023-05-11T00:23:40.413Z,20.08
2023-05-11T00:26:07.445Z,20.55
2023-05-11T00:28:34.480Z,20.02
2023-05-11T00:31:01.596Z,20.55
2023-05-11T00:33:28.605Z,20.00
2023-05-11T00:35:55.746Z,24.48
2023-05-11T00:38:22.798Z,23.02
2023-05-11T00:40:51.158Z,24.67
2023-05-11T00:43:18.226Z,24.42
2023-05-11T00:45:48.078Z,23.00
2023-05-11T00:48:16.430Z,26.52
2023-05-11T00:50:43.525Z,26.80
2023-05-11T00:53:11.638Z,25.73
2023-05-11T00:55:38.783Z,27.77
2023-05-11T00:58:06.147Z,26.50
2023-05-11T01:00:33.360Z,26.50
2023-05-11T01:03:04.310Z,27.10
2023-05-11T01:05:54.318Z,29.75
2023-05-11T01:09:03.754Z,26.98
2023-05-11T01:12:25.213Z,32.45
2023-05-11T01:15:08.619Z,29.05
2023-05-11T01:17:51.193Z,31.55
2023-05-11T01:20:25.022Z,33.03
2023-05-11T01:23:31.719Z,33.53
2023-05-11T01:26:59.389Z,31.52
2023-05-11T01:29:57.164Z,35.63
2023-05-11T01:32:28.023Z,34.70
2023-05-11T01:35:12.481Z,36.80
2023-05-11T01:37:46.389Z,38.03
2023-05-11T01:40:18.085Z,35.75
2023-05-11T01:42:49.998Z,37.22
2023-05-11T01:45:19.156Z,37.63
2023-05-11T01:47:51.047Z,36.67
2023-05-11T01:50:24.155Z,38.40
2023-05-11T01:52:53.156Z,35.03
2023-05-11T01:55:22.812Z,37.17
2023-05-11T01:57:54.497Z,34.25
2023-05-11T02:00:22.668Z,35.33
2023-05-11T02:02:50.546Z,32.75
2023-05-11T02:05:23.716Z,30.65
2023-05-11T02:07:54.444Z,36.03
2023-05-11T02:10:26.792Z,35.55
2023-05-11T02:12:55.500Z,32.47
2023-05-11T02:15:24.109Z,34.65
2023-05-11T02:17:53.036Z,37.03
2023-05-11T02:20:21.121Z,35.58
2023-05-11T02:22:49.763Z,34.67
2023-05-11T02:25:18.551Z,36.70
2023-05-11T02:27:46.101Z,40.47
2023-05-11T02:30:13.891Z,38.53
2023-05-11T02:32:51.559Z,33.85
2023-05-11T02:35:24.417Z,41.08
2023-05-11T02:37:57.846Z,38.17
2023-05-11T02:40:40.377Z,37.72
2023-05-11T02:43:15.792Z,40.78
2023-05-11T02:45:46.390Z,39.33
2023-05-11T02:48:22.801Z,42.03
2023-05-11T02:50:52.456Z,47.92
2023-05-11T02:53:22.734Z,45.03
2023-05-11T02:55:51.734Z,43.35
2023-05-11T02:58:19.395Z,41.70
2023-05-11T03:00:46.711Z,41.33
2023-05-11T03:03:14.114Z,47.10
2023-05-11T03:05:41.096Z,47.03
2023-05-11T03:08:08.315Z,46.45
2023-05-11T03:10:36.337Z,42.55
2023-05-11T03:13:04.245Z,48.25
2023-05-11T03:15:32.247Z,47.15
2023-05-11T03:18:00.778Z,44.72
2023-05-11T03:20:29.008Z,44.72
2023-05-11T03:22:56.576Z,45.60
2023-05-11T03:25:25.046Z,51.42
2023-05-11T03:27:53.813Z,51.53
2023-05-11T03:30:22.677Z,44.88
2023-05-11T03:32:50.094Z,44.38
2023-05-11T03:35:17.538Z,47.97
2023-05-11T03:37:45.910Z,54.90
2023-05-11T03:40:17.050Z,56.03
2023-05-11T03:42:45.568Z,52.85
2023-05-11T03:45:16.937Z,53.10
2023-05-11T03:47:45.460Z,51.65
2023-05-11T03:50:13.953Z,54.60
2023-05-11T03:52:41.291Z,66.15
2023-05-11T03:55:09.480Z,63.70
2023-05-11T03:57:36.869Z,66.22
2023-05-11T04:00:05.381Z,59.40
2023-05-11T04:02:35.207Z,58.78
2023-05-11T04:05:08.545Z,62.25
2023-05-11T04:07:37.821Z,58.20
2023-05-11T04:10:06.431Z,63.13
2023-05-11T04:12:33.637Z,59.13
2023-05-11T04:15:00.747Z,65.50
2023-05-11T04:17:27.793Z,60.33
2023-05-11T04:19:54.924Z,59.85
2023-05-11T04:22:22.821Z,71.25
2023-05-11T04:24:49.814Z,63.60
2023-05-11T04:27:16.842Z,59.67
2023-05-11T04:29:45.078Z,65.90
2023-05-11T04:32:12.152Z,63.70
2023-05-11T04:34:39.955Z,62.22
2023-05-11T04:37:07.639Z,67.88
2023-05-11T04:39:35.117Z,65.95
2023-05-11T04:42:02.278Z,62.92
2023-05-11T04:44:29.345Z,60.22
2023-05-11T04:46:58.081Z,61.80
2023-05-11T04:49:25.166Z,55.20
2023-05-11T04:51:52.379Z,58.67
2023-05-11T04:54:19.428Z,56.10
2023-05-11T04:56:46.554Z,59.85
2023-05-11T04:59:13.770Z,54.75
2023-05-11T05:01:40.809Z,50.53
2023-05-11T05:04:09.249Z,59.67
2023-05-11T05:06:38.247Z,50.67
2023-05-11T05:09:05.341Z,48.47
2023-05-11T05:11:32.386Z,49.30
2023-05-11T05:13:59.477Z,48.50
2023-05-11T05:16:26.634Z,50.30
2023-05-11T05:18:53.802Z,44.92
2023-05-11T05:21:20.843Z,46.22
2023-05-11T05:23:47.873Z,47.67
2023-05-11T05:26:14.939Z,47.08
2023-05-11T05:28:41.969Z,44.67
2023-05-11T05:31:09.054Z,42.50
2023-05-11T05:33:36.203Z,40.50
2023-05-11T05:36:03.546Z,41.25
2023-05-11T05:38:30.704Z,41.30
2023-05-11T05:40:57.890Z,39.10
2023-05-11T05:43:24.956Z,37.30
2023-05-11T05:45:52.007Z,43.97
2023-05-11T05:48:19.062Z,37.15
2023-05-11T05:50:47.151Z,30.98
2023-05-11T05:53:14.345Z,35.00
2023-05-11T05:55:41.402Z,37.20
2023-05-11T05:58:08.521Z,34.25
2023-05-11T06:03:04.056Z,31.63
2023-05-11T06:05:31.142Z,37.72
2023-05-11T06:08:09.884Z,30.92
2023-05-11T06:10:38.388Z,31.85
2023-05-11T06:13:05.493Z,33.40
2023-05-11T06:15:32.561Z,29.85
2023-05-11T06:17:59.671Z,32.88
2023-05-11T06:20:27.836Z,32.05
2023-05-11T06:22:55.045Z,31.67
2023-05-11T06:25:22.213Z,30.92
2023-05-11T06:27:49.330Z,40.17
2023-05-11T06:30:16.752Z,38.35
2023-05-11T06:32:44.012Z,41.08
2023-05-11T06:35:11.240Z,35.85
2023-05-11T06:37:38.273Z,37.35
2023-05-11T06:40:06.907Z,35.53
2023-05-11T06:42:34.110Z,34.25
2023-05-11T06:45:01.405Z,40.53
2023-05-11T06:47:28.543Z,42.85
2023-05-11T06:49:55.724Z,39.17
2023-05-11T06:52:22.713Z,38.40
2023-05-11T06:54:49.644Z,41.45
2023-05-11T06:57:16.909Z,46.40
2023-05-11T06:59:44.540Z,46.35
2023-05-11T07:02:11.604Z,49.15
2023-05-11T07:04:38.807Z,52.33
2023-05-11T07:07:06.097Z,47.72
2023-05-11T07:09:33.217Z,55.28
2023-05-11T07:12:02.545Z,56.83
2023-05-11T07:14:29.582Z,59.35
2023-05-11T07:16:56.714Z,58.65
2023-05-11T07:19:23.921Z,62.05
2023-05-11T07:21:52.251Z,63.33
2023-05-11T07:24:19.300Z,64.50
2023-05-11T07:26:46.312Z,64.30
2023-05-11T07:29:13.452Z,66.40
2023-05-11T07:31:40.567Z,79.45
2023-05-11T07:34:08.155Z,77.13
2023-05-11T07:36:35.121Z,92.93
2023-05-11T07:39:02.407Z,92.28
2023-05-11T07:41:29.656Z,95.22
2023-05-11T07:43:56.752Z,94.25
2023-05-11T07:46:24.151Z,91.82
2023-05-11T07:48:55.273Z,98.07
2023-05-11T07:51:30.952Z,94.03
2023-05-11T07:53:58.133Z,92.47
2023-05-11T07:56:25.208Z,98.47
2023-05-11T07:58:52.257Z,94.47
2023-05-11T08:01:19.366Z,96.78
2023-05-11T08:03:46.354Z,94.18
2023-05-11T08:06:13.645Z,96.90
2023-05-11T08:08:40.798Z,92.70
2023-05-11T08:11:08.935Z,87.60
2023-05-11T08:13:36.064Z,105.10
2023-05-11T08:16:03.348Z,93.82
2023-05-11T08:18:30.525Z,97.22
2023-05-11T08:20:57.604Z,91.35
2023-05-11T08:23:24.666Z,81.95
2023-05-11T08:25:54.936Z,75.55
2023-05-11T08:28:22.670Z,68.47
2023-05-11T08:30:57.562Z,57.15
2023-05-11T08:35:55.009Z,45.63
2023-05-11T08:38:22.448Z,38.58
2023-05-11T08:40:51.954Z,33.75
2023-05-11T08:43:19.726Z,40.50
2023-05-11T08:45:50.374Z,36.80
2023-05-11T08:48:18.828Z,31.77
2023-05-11T08:50:46.670Z,37.83
2023-05-11T08:53:14.616Z,33.85
2023-05-11T08:55:43.931Z,39.25
2023-05-11T08:58:14.501Z,35.72
2023-05-11T09:00:43.512Z,28.08
2023-05-11T09:03:11.310Z,24.45
2023-05-11T09:05:39.630Z,27.70
2023-05-11T09:08:09.000Z,26.65
2023-05-11T09:10:37.609Z,21.15
2023-05-11T09:13:04.891Z,26.30
2023-05-11T09:15:37.093Z,21.92
2023-05-11T09:18:05.586Z,21.30
2023-05-11T09:20:34.643Z,24.38
2023-05-11T09:23:02.145Z,20.15
2023-05-11T09:25:35.181Z,25.38
2023-05-11T09:28:02.666Z,23.70
2023-05-11T09:30:29.840Z,20.35
2023-05-11T09:32:59.384Z,26.83
2023-05-11T09:35:32.576Z,25.08
2023-05-11T09:38:09.502Z,26.10
2023-05-11T09:40:39.793Z,24.08
2023-05-11T09:43:30.880Z,19.80
2023-05-11T09:46:07.204Z,22.30
2023-05-11T09:48:35.400Z,24.15
2023-05-11T09:51:08.410Z,23.50
2023-05-11T09:53:46.028Z,25.70
2023-05-11T09:56:15.601Z,23.25
2023-05-11T09:58:55.137Z,20.65
2023-05-11T10:01:34.066Z,21.75
2023-05-11T10:04:21.083Z,18.33
2023-05-11T10:06:55.402Z,20.52
2023-05-11T10:09:27.219Z,19.42
2023-05-11T10:11:55.531Z,22.48
2023-05-11T10:14:24.140Z,22.10
2023-05-11T10:16:52.193Z,22.00
2023-05-11T10:19:19.752Z,21.98
2023-05-11T10:21:47.655Z,16.83
2023-05-11T10:24:16.711Z,19.88
2023-05-11T10:26:45.670Z,17.42
2023-05-11T10:29:13.490Z,22.50
2023-05-11T10:31:40.826Z,23.10
2023-05-11T10:34:10.602Z,21.08
2023-05-11T10:36:37.895Z,21.10
2023-05-11T10:39:04.916Z,22.10
2023-05-11T10:41:41.513Z,24.02
2023-05-11T10:44:55.119Z,27.60
2023-05-11T10:47:43.598Z,28.73
2023-05-11T10:50:56.680Z,31.42
2023-05-11T10:53:43.969Z,39.13
2023-05-11T10:56:16.959Z,37.85
2023-05-11T10:59:22.403Z,38.78
2023-05-11T11:01:59.014Z,34.83
2023-05-11T11:04:43.139Z,38.33
2023-05-11T11:07:11.496Z,38.38
2023-05-11T11:10:09.155Z,37.33
2023-05-11T11:12:36.217Z,34.45
2023-05-11T11:15:06.609Z,33.90
2023-05-11T11:17:35.848Z,33.50
2023-05-11T11:20:08.838Z,35.88
2023-05-11T11:22:38.909Z,36.17
2023-05-11T11:25:09.058Z,35.20
2023-05-11T11:27:41.983Z,34.08
2023-05-11T11:30:30.430Z,37.83
2023-05-11T11:33:07.107Z,37.03
2023-05-11T11:35:40.362Z,34.92
2023-05-11T11:38:20.065Z,36.53
2023-05-11T11:40:53.090Z,36.67
2023-05-11T11:43:24.664Z,35.22
2023-05-11T11:46:03.059Z,37.50
2023-05-11T11:48:38.916Z,35.75
2023-05-11T11:51:09.135Z,38.22
2023-05-11T11:53:42.007Z,33.22
2023-05-11T11:56:28.878Z,36.28
2023-05-11T11:59:10.164Z,34.33
2023-05-11T12:01:39.304Z,41.17
2023-05-11T12:04:22.231Z,49.17
2023-05-11T12:07:02.969Z,41.05
2023-05-11T12:09:30.180Z,43.58
2023-05-11T12:11:58.541Z,42.40
2023-05-11T12:14:26.447Z,42.45
2023-05-11T12:17:13.560Z,41.60
2023-05-11T12:19:45.575Z,45.08
2023-05-11T12:22:14.858Z,38.50
2023-05-11T12:24:43.196Z,43.25
2023-05-11T12:27:10.401Z,45.90
2023-05-11T12:29:37.795Z,47.50
2023-05-11T12:32:05.395Z,44.65
2023-05-11T12:34:32.493Z,39.80
2023-05-11T12:37:00.638Z,44.30
2023-05-11T12:39:28.642Z,39.88
2023-05-11T12:41:56.989Z,42.30
2023-05-11T12:44:28.546Z,43.78
2023-05-11T12:46:55.733Z,42.03
2023-05-11T12:49:26.254Z,39.90
2023-05-11T12:52:00.098Z,42.25
2023-05-11T12:54:38.616Z,39.17
2023-05-11T12:57:08.778Z,43.25
2023-05-11T12:59:42.179Z,38.28
2023-05-11T13:02:18.105Z,40.78
2023-05-11T13:04:47.542Z,35.15
2023-05-11T13:07:25.079Z,36.60
2023-05-11T13:10:01.418Z,36.58
2023-05-11T13:12:32.191Z,32.88
2023-05-11T13:15:12.866Z,30.25
2023-05-11T13:17:42.904Z,29.73
2023-05-11T13:20:29.914Z,32.13
2023-05-11T13:23:09.974Z,30.10
2023-05-11T13:25:46.177Z,28.77
2023-05-11T13:28:15.145Z,33.83
2023-05-11T13:30:42.956Z,29.92
2023-05-11T13:33:10.157Z,29.70
2023-05-11T13:35:42.192Z,30.75
2023-05-11T13:38:10.786Z,29.63
2023-05-11T13:40:38.710Z,29.48
2023-05-11T13:43:07.404Z,31.42
2023-05-11T13:45:36.372Z,28.67
2023-05-11T13:48:03.884Z,27.67
2023-05-11T13:50:34.624Z,26.52
2023-05-11T13:53:01.758Z,29.35
2023-05-11T13:55:29.839Z,29.95
2023-05-11T13:57:57.349Z,29.15
2023-05-11T14:00:24.802Z,26.30
2023-05-11T14:02:53.008Z,28.20
2023-05-11T14:05:20.440Z,24.15
2023-05-11T14:07:48.992Z,26.25
2023-05-11T14:10:20.227Z,18.65
2023-05-11T14:12:47.312Z,17.58
2023-05-11T14:15:14.508Z,18.70
2023-05-11T14:17:43.430Z,16.05
2023-05-11T14:20:12.730Z,15.95
2023-05-11T14:22:41.511Z,22.35
2023-05-11T14:25:09.242Z,17.40
2023-05-11T14:27:36.619Z,16.15
2023-05-11T14:30:04.246Z,17.38
2023-05-11T14:32:31.344Z,16.75
2023-05-11T14:34:58.497Z,16.08
2023-05-11T14:37:25.830Z,14.48
2023-05-11T14:39:52.841Z,12.20
2023-05-11T14:42:20.086Z,13.80
2023-05-11T14:44:47.248Z,15.68
2023-05-11T14:47:14.719Z,17.65
2023-05-11T14:49:41.904Z,14.15
2023-05-11T14:52:10.708Z,13.35
2023-05-11T14:54:37.849Z,11.60
2023-05-11T14:57:05.554Z,13.20
2023-05-11T14:59:32.673Z,13.40
2023-05-11T15:02:00.319Z,15.00
2023-05-11T15:04:27.691Z,13.98
2023-05-11T15:06:55.231Z,17.83
2023-05-11T15:09:22.415Z,13.00
2023-05-11T15:11:49.508Z,14.15
2023-05-11T15:14:17.745Z,16.58
2023-05-11T15:16:46.234Z,13.23
2023-05-11T15:19:14.066Z,13.45
2023-05-11T15:21:41.173Z,13.25
2023-05-11T15:24:10.804Z,14.05
2023-05-11T15:26:38.542Z,14.20
2023-05-11T15:29:05.737Z,14.80
2023-05-11T15:31:33.513Z,12.63
2023-05-11T15:34:04.117Z,17.40
2023-05-11T15:36:31.228Z,21.83
2023-05-11T15:38:58.634Z,17.80
2023-05-11T15:41:26.126Z,15.27
2023-05-11T15:43:54.506Z,20.05
2023-05-11T15:46:22.729Z,20.88
2023-05-11T15:48:49.908Z,20.58
2023-05-11T15:51:17.390Z,20.75
2023-05-11T15:53:44.635Z,22.77
2023-05-11T15:56:11.936Z,22.83
2023-05-11T15:58:39.160Z,21.23
2023-05-11T16:01:06.393Z,24.75
2023-05-11T16:03:34.128Z,22.05
2023-05-11T16:06:01.896Z,19.33
2023-05-11T16:08:29.146Z,19.95
2023-05-11T16:10:56.668Z,20.40
2023-05-11T16:13:24.000Z,18.83
2023-05-11T16:15:52.348Z,22.80
2023-05-11T16:18:20.078Z,19.73
2023-05-11T16:20:47.504Z,30.20
2023-05-11T16:23:14.712Z,34.25
2023-05-11T16:25:41.911Z,26.38
2023-05-11T16:28:09.518Z,25.52
2023-05-11T16:30:37.048Z,27.00
2023-05-11T16:33:04.288Z,26.27
2023-05-11T16:35:31.554Z,24.95
2023-05-11T16:38:02.622Z,20.55
2023-05-11T16:40:29.932Z,27.55
2023-05-11T16:42:57.655Z,21.73
2023-05-11T16:45:24.735Z,26.17
2023-05-11T16:47:52.241Z,21.65
2023-05-11T16:50:19.716Z,25.48
2023-05-11T16:52:46.967Z,23.77
2023-05-11T16:55:16.229Z,27.45
2023-05-11T16:57:44.992Z,23.90
2023-05-11T17:00:13.625Z,25.63
2023-05-11T17:02:41.746Z,26.10
2023-05-11T17:05:10.696Z,25.58
2023-05-11T17:07:38.093Z,27.63
2023-05-11T17:10:06.201Z,28.52
2023-05-11T17:12:35.674Z,29.02
2023-05-11T17:15:03.625Z,26.67
2023-05-11T17:17:30.727Z,29.95
2023-05-11T17:19:57.961Z,28.90
2023-05-11T17:22:26.011Z,27.98
2023-05-11T17:24:53.064Z,29.58
2023-05-11T17:27:20.318Z,26.17
2023-05-11T17:29:47.627Z,26.55
2023-05-11T17:32:14.818Z,26.25
2023-05-11T17:34:42.084Z,28.75
2023-05-11T17:37:17.429Z,26.52
2023-05-11T17:39:52.344Z,22.92
2023-05-11T17:42:20.380Z,26.98
2023-05-11T17:44:47.423Z,23.00
2023-05-11T17:47:14.498Z,21.52
2023-05-11T17:49:41.988Z,21.38
2023-05-11T17:52:10.646Z,24.38
2023-05-11T17:54:37.721Z,26.25
2023-05-11T17:57:05.323Z,20.83
2023-05-11T17:59:32.517Z,21.73
2023-05-11T18:02:00.034Z,57.17
2023-05-11T18:04:27.554Z,23.90
2023-05-11T18:06:54.670Z,23.30
2023-05-11T18:09:23.173Z,21.75
2023-05-11T18:11:50.436Z,16.60
2023-05-11T18:14:18.019Z,18.55
2023-05-11T18:16:45.058Z,16.40
2023-05-11T18:19:12.256Z,15.48
2023-05-11T18:21:40.463Z,15.13
2023-05-11T18:24:09.560Z,15.45
2023-05-11T18:26:36.894Z,16.00
2023-05-11T18:29:04.122Z,11.73
2023-05-11T18:31:31.674Z,14.15
2023-05-11T18:33:58.791Z,13.57
2023-05-11T18:36:27.368Z,14.73
2023-05-11T18:38:54.422Z,11.38
2023-05-11T18:41:21.602Z,12.50
2023-05-11T18:43:48.720Z,10.05
2023-05-11T18:46:15.832Z,11.75
2023-05-11T18:48:42.898Z,10.85
2023-05-11T18:51:10.856Z,11.77
2023-05-11T18:53:38.045Z,27.00
2023-05-11T18:56:05.596Z,25.33
2023-05-11T18:58:32.989Z,14.15
2023-05-11T19:01:00.060Z,13.98
2023-05-11T19:03:27.516Z,15.60
2023-05-11T19:05:54.856Z,15.88
2023-05-11T19:08:22.255Z,12.88
2023-05-11T19:10:49.545Z,39.80
2023-05-11T19:13:17.199Z,10.82
2023-05-11T19:15:44.626Z,13.82
2023-05-11T19:18:12.097Z,12.20
2023-05-11T19:20:39.678Z,14.93
2023-05-11T19:23:06.798Z,11.23
2023-05-11T19:25:33.893Z,11.38
2023-05-11T19:28:01.727Z,11.43
2023-05-11T19:30:28.755Z,12.30
2023-05-11T19:32:55.959Z,12.27
2023-05-11T19:35:23.700Z,11.73
2023-05-11T19:37:50.992Z,9.30
2023-05-11T19:40:44.584Z,10.10
2023-05-11T19:43:07.717Z,10.43
2023-05-11T19:45:37.306Z,14.77
2023-05-11T19:48:04.998Z,12.23
2023-05-11T19:50:32.275Z,11.35
2023-05-11T19:52:59.437Z,12.75
2023-05-11T19:55:26.555Z,13.00
2023-05-11T19:57:53.607Z,10.45
2023-05-11T20:00:25.102Z,10.65
2023-05-11T20:02:53.333Z,11.07
2023-05-11T20:05:20.958Z,12.00
2023-05-11T20:07:48.131Z,11.20
2023-05-11T20:10:15.508Z,11.07
2023-05-11T20:12:42.726Z,12.05
2023-05-11T20:15:10.986Z,11.00
2023-05-11T20:17:39.467Z,10.20
2023-05-11T20:20:08.673Z,10.02
2023-05-11T20:22:36.851Z,10.75
2023-05-11T20:25:13.892Z,11.90
2023-05-11T20:27:45.178Z,10.32
2023-05-11T20:30:13.111Z,11.50
2023-05-11T20:35:28.169Z,9.27
2023-05-11T20:37:55.662Z,10.93
2023-05-11T20:40:22.869Z,11.55
2023-05-11T20:42:49.928Z,9.93
2023-05-11T20:45:17.218Z,11.68
2023-05-11T20:47:44.309Z,10.77
2023-05-11T20:50:12.234Z,10.07
2023-05-11T20:52:39.570Z,10.98
2023-05-11T20:55:07.941Z,11.63
2023-05-11T20:57:35.085Z,12.13
2023-05-11T21:00:04.217Z,11.50
2023-05-11T21:02:31.831Z,11.30
2023-05-11T21:05:02.100Z,11.65
2023-05-11T21:07:30.077Z,11.65
2023-05-11T21:09:58.445Z,16.52
2023-05-11T21:12:25.747Z,11.43
2023-05-11T21:14:54.414Z,11.35
2023-05-11T21:17:22.914Z,11.02
2023-05-11T21:19:50.344Z,11.73
2023-05-11T21:22:20.185Z,10.80
2023-05-11T21:24:47.682Z,13.40
2023-05-11T21:27:15.101Z,11.82
2023-05-11T21:29:42.476Z,11.20
2023-05-11T21:32:10.276Z,10.35
2023-05-11T21:34:39.886Z,11.93
2023-05-11T21:37:07.002Z,13.20
2023-05-11T21:39:34.187Z,11.63
2023-05-11T21:42:02.843Z,11.48
2023-05-11T21:44:29.987Z,11.70
2023-05-11T21:46:57.120Z,12.65
2023-05-11T21:49:24.748Z,10.68
2023-05-11T21:51:52.276Z,12.02
2023-05-11T21:54:22.602Z,11.65
2023-05-11T21:56:52.239Z,12.25
2023-05-11T21:59:20.120Z,12.75
2023-05-11T22:01:49.861Z,11.15
2023-05-11T22:04:17.097Z,13.45
2023-05-11T22:06:44.465Z,12.82
2023-05-11T22:09:12.699Z,12.10
2023-05-11T22:11:40.130Z,12.73
2023-05-11T22:14:07.601Z,12.15
2023-05-11T22:16:35.369Z,13.45
2023-05-11T22:19:04.241Z,11.95
2023-05-11T22:21:31.388Z,13.45
2023-05-11T22:23:59.406Z,13.32
2023-05-11T22:26:27.949Z,13.65
2023-05-11T22:28:54.973Z,12.13
2023-05-11T22:31:22.424Z,13.63
2023-05-11T22:33:49.503Z,13.77
2023-05-11T22:36:16.722Z,11.85
2023-05-11T22:38:43.790Z,12.93
2023-05-11T22:41:10.896Z,12.82
2023-05-11T22:43:38.378Z,13.52
2023-05-11T22:46:06.013Z,16.67
2023-05-11T22:48:33.167Z,15.27
2023-05-11T22:51:00.436Z,13.55
2023-05-11T22:53:27.678Z,14.02
2023-05-11T22:55:54.659Z,14.82
2023-05-11T22:58:22.732Z,16.33
2023-05-11T23:00:54.536Z,14.57
2023-05-11T23:03:22.501Z,15.00
2023-05-11T23:05:49.688Z,21.10
2023-05-11T23:08:16.846Z,18.65
2023-05-11T23:10:43.878Z,14.00
2023-05-11T23:13:11.609Z,16.95
2023-05-11T23:15:38.601Z,14.57
2023-05-11T23:18:05.836Z,14.88
2023-05-11T23:20:33.232Z,14.27
2023-05-11T23:23:00.589Z,14.38
2023-05-11T23:25:27.812Z,14.65
2023-05-11T23:27:55.115Z,17.67
2023-05-11T23:30:22.981Z,14.63
2023-05-11T23:32:50.327Z,17.67
2023-05-11T23:35:19.344Z,14.80
2023-05-11T23:37:46.439Z,18.05
2023-05-11T23:40:13.846Z,14.07
2023-05-11T23:42:40.911Z,14.77
2023-05-11T23:45:11.532Z,14.85
2023-05-11T23:47:38.805Z,13.35
2023-05-11T23:50:07.459Z,15.45
2023-05-11T23:52:34.470Z,13.70
2023-05-11T23:55:02.773Z,13.57
2023-05-11T23:57:29.875Z,14.52
2023-05-11T23:59:57.057Z,12.85
